sensor_id;sensor_type;location;lat;lon;timestamp;P1;durP1;ratioP1;P2;durP2;ratioP2
16626;SDS011;8427;52.204;7.202;2023-08-20T00:01:55;40.73;;;38.93;;
16626;SDS011;8427;52.204;7.202;2023-08-20T00:04:25;40.13;;;38.33;;
16626;SDS011;8427;52.204;7.202;2023-08-20T00:06:54;43.60;;;41.40;;
16626;SDS011;8427;52.204;7.202;2023-08-20T00:09:22;42.63;;;40.50;;
16626;SDS011;8427;52.204;7.202;2023-08-20T00:11:53;42.40;;;40.30;;
16626;SDS011;8427;52.204;7.202;2023-08-20T00:14:21;42.87;;;40.73;;
16626;SDS011;8427;52.204;7.202;2023-08-20T00:17:25;49.30;;;46.37;;
16626;SDS011;8427;52.204;7.202;2023-08-20T00:19:54;42.90;;;40.73;;
16626;SDS011;8427;52.204;7.202;2023-08-20T00:22:23;44.67;;;42.33;;
16626;SDS011;8427;52.204;7.202;2023-08-20T00:24:53;45.30;;;42.80;;
16626;SDS011;8427;52.204;7.202;2023-08-20T00:27:21;43.77;;;41.47;;
16626;SDS011;8427;52.204;7.202;2023-08-20T00:29:49;44.90;;;42.40;;
16626;SDS011;8427;52.204;7.202;2023-08-20T00:32:18;51.10;;;47.30;;
16626;SDS011;8427;52.204;7.202;2023-08-20T00:34:46;45.90;;;43.20;;
16626;SDS011;8427;52.204;7.202;2023-08-20T00:37:14;48.10;;;45.07;;
16626;SDS011;8427;52.204;7.202;2023-08-20T00:39:43;45.90;;;43.20;;
16626;SDS011;8427;52.204;7.202;2023-08-20T00:42:11;46.77;;;43.87;;
16626;SDS011;8427;52.204;7.202;2023-08-20T00:44:40;48.20;;;45.20;;
16626;SDS011;8427;52.204;7.202;2023-08-20T00:47:10;55.60;;;51.60;;
16626;SDS011;8427;52.204;7.202;2023-08-20T00:49:41;48.17;;;45.00;;
16626;SDS011;8427;52.204;7.202;2023-08-20T00:52:09;49.30;;;45.90;;
16626;SDS011;8427;52.204;7.202;2023-08-20T00:54:39;53.77;;;49.07;;
16626;SDS011;8427;52.204;7.202;2023-08-20T00:57:07;52.10;;;47.70;;
16626;SDS011;8427;52.204;7.202;2023-08-20T00:59:35;52.23;;;47.80;;
16626;SDS011;8427;52.204;7.202;2023-08-20T01:02:04;55.83;;;50.37;;
16626;SDS011;8427;52.204;7.202;2023-08-20T01:04:32;45.50;;;42.80;;
16626;SDS011;8427;52.204;7.202;2023-08-20T01:07:04;62.50;;;55.27;;
16626;SDS011;8427;52.204;7.202;2023-08-20T01:09:43;48.60;;;45.17;;
16626;SDS011;8427;52.204;7.202;2023-08-20T01:12:17;54.03;;;49.33;;
16626;SDS011;8427;52.204;7.202;2023-08-20T01:14:46;46.90;;;43.90;;
16626;SDS011;8427;52.204;7.202;2023-08-20T01:17:14;49.07;;;45.77;;
16626;SDS011;8427;52.204;7.202;2023-08-20T01:19:42;47.57;;;44.40;;
16626;SDS011;8427;52.204;7.202;2023-08-20T01:25:14;47.53;;;44.50;;
16626;SDS011;8427;52.204;7.202;2023-08-20T01:27:52;53.73;;;49.03;;
16626;SDS011;8427;52.204;7.202;2023-08-20T01:30:28;55.40;;;50.00;;
16626;SDS011;8427;52.204;7.202;2023-08-20T01:32:57;58.07;;;51.67;;
16626;SDS011;8427;52.204;7.202;2023-08-20T01:35:26;59.67;;;53.37;;
16626;SDS011;8427;52.204;7.202;2023-08-20T05:12:43;40.90;;;39.10;;
16626;SDS011;8427;52.204;7.202;2023-08-20T05:15:12;41.23;;;39.40;;
16626;SDS011;8427;52.204;7.202;2023-08-20T05:17:41;43.50;;;41.50;;
16626;SDS011;8427;52.204;7.202;2023-08-20T05:20:09;39.30;;;37.60;;
16626;SDS011;8427;52.204;7.202;2023-08-20T05:22:37;40.07;;;38.37;;
16626;SDS011;8427;52.204;7.202;2023-08-20T05:25:05;39.57;;;37.87;;
16626;SDS011;8427;52.204;7.202;2023-08-20T05:27:34;41.90;;;40.20;;
16626;SDS011;8427;52.204;7.202;2023-08-20T05:30:04;41.00;;;39.10;;
16626;SDS011;8427;52.204;7.202;2023-08-20T05:32:36;39.00;;;37.40;;
16626;SDS011;8427;52.204;7.202;2023-08-20T05:35:04;38.20;;;36.70;;
16626;SDS011;8427;52.204;7.202;2023-08-20T05:37:33;38.20;;;36.70;;
16626;SDS011;8427;52.204;7.202;2023-08-20T05:40:01;38.67;;;37.07;;
16626;SDS011;8427;52.204;7.202;2023-08-20T05:42:29;42.00;;;40.03;;
16626;SDS011;8427;52.204;7.202;2023-08-20T05:44:57;38.10;;;36.60;;
16626;SDS011;8427;52.204;7.202;2023-08-20T05:47:25;40.70;;;38.90;;
16626;SDS011;8427;52.204;7.202;2023-08-20T05:49:54;44.30;;;42.03;;
16626;SDS011;8427;52.204;7.202;2023-08-20T05:52:22;39.23;;;37.57;;
16626;SDS011;8427;52.204;7.202;2023-08-20T05:54:50;40.93;;;39.10;;
16626;SDS011;8427;52.204;7.202;2023-08-20T05:57:18;38.90;;;37.30;;
16626;SDS011;8427;52.204;7.202;2023-08-20T05:59:46;42.30;;;40.30;;
16626;SDS011;8427;52.204;7.202;2023-08-20T06:02:15;39.00;;;37.40;;
16626;SDS011;8427;52.204;7.202;2023-08-20T06:04:44;40.03;;;38.33;;
16626;SDS011;8427;52.204;7.202;2023-08-20T06:07:13;38.87;;;37.27;;
16626;SDS011;8427;52.204;7.202;2023-08-20T06:09:41;39.60;;;37.90;;
16626;SDS011;8427;52.204;7.202;2023-08-20T06:12:10;41.83;;;39.93;;
16626;SDS011;8427;52.204;7.202;2023-08-20T06:14:37;40.33;;;38.60;;
16626;SDS011;8427;52.204;7.202;2023-08-20T06:17:06;41.40;;;39.57;;
16626;SDS011;8427;52.204;7.202;2023-08-20T06:19:34;44.70;;;42.50;;
16626;SDS011;8427;52.204;7.202;2023-08-20T19:23:30;56.65;;;48.90;;
16626;SDS011;8427;52.204;7.202;2023-08-20T19:26:01;71.43;;;51.50;;
16626;SDS011;8427;52.204;7.202;2023-08-20T19:28:30;121.07;;;56.77;;
16626;SDS011;8427;52.204;7.202;2023-08-20T19:30:58;117.37;;;54.97;;
16626;SDS011;8427;52.204;7.202;2023-08-20T21:22:14;45.05;;;42.05;;
16626;SDS011;8427;52.204;7.202;2023-08-20T21:24:42;44.40;;;41.50;;
16626;SDS011;8427;52.204;7.202;2023-08-20T21:27:10;43.97;;;41.07;;
16626;SDS011;8427;52.204;7.202;2023-08-20T21:29:40;44.00;;;41.10;;
16626;SDS011;8427;52.204;7.202;2023-08-20T21:32:08;45.30;;;42.20;;
16626;SDS011;8427;52.204;7.202;2023-08-20T21:34:36;44.37;;;41.37;;
16626;SDS011;8427;52.204;7.202;2023-08-20T21:37:04;44.00;;;41.10;;
16626;SDS011;8427;52.204;7.202;2023-08-20T21:39:31;44.73;;;41.73;;
16626;SDS011;8427;52.204;7.202;2023-08-20T21:42:00;45.67;;;42.47;;
16626;SDS011;8427;52.204;7.202;2023-08-20T21:44:27;44.27;;;41.37;;
16626;SDS011;8427;52.204;7.202;2023-08-20T21:46:57;44.07;;;41.17;;
16626;SDS011;8427;52.204;7.202;2023-08-20T21:49:27;44.57;;;41.60;;
16626;SDS011;8427;52.204;7.202;2023-08-20T21:51:57;44.47;;;41.47;;
16626;SDS011;8427;52.204;7.202;2023-08-20T21:54:24;44.30;;;41.40;;
16626;SDS011;8427;52.204;7.202;2023-08-20T21:56:52;45.00;;;42.00;;
16626;SDS011;8427;52.204;7.202;2023-08-20T21:59:21;44.90;;;41.90;;
16626;SDS011;8427;52.204;7.202;2023-08-20T22:01:49;45.10;;;42.00;;
16626;SDS011;8427;52.204;7.202;2023-08-20T22:04:18;43.63;;;40.83;;
16626;SDS011;8427;52.204;7.202;2023-08-20T22:06:46;44.40;;;41.40;;
16626;SDS011;8427;52.204;7.202;2023-08-20T22:09:14;45.07;;;42.07;;
16626;SDS011;8427;52.204;7.202;2023-08-20T22:11:42;45.10;;;42.10;;
16626;SDS011;8427;52.204;7.202;2023-08-20T22:14:09;44.20;;;41.30;;
16626;SDS011;8427;52.204;7.202;2023-08-20T22:16:37;45.70;;;42.70;;
16626;SDS011;8427;52.204;7.202;2023-08-20T22:19:15;43.43;;;40.67;;
16626;SDS011;8427;52.204;7.202;2023-08-20T22:21:45;43.80;;;41.00;;
16626;SDS011;8427;52.204;7.202;2023-08-20T22:24:14;42.87;;;40.17;;
16626;SDS011;8427;52.204;7.202;2023-08-20T22:26:46;44.30;;;41.40;;
16626;SDS011;8427;52.204;7.202;2023-08-20T22:29:14;43.40;;;40.70;;
16626;SDS011;8427;52.204;7.202;2023-08-20T22:31:42;42.90;;;40.30;;
16626;SDS011;8427;52.204;7.202;2023-08-20T22:34:10;44.27;;;41.47;;
16626;SDS011;8427;52.204;7.202;2023-08-20T22:36:38;42.80;;;40.20;;
16626;SDS011;8427;52.204;7.202;2023-08-20T22:39:08;41.93;;;39.43;;
16626;SDS011;8427;52.204;7.202;2023-08-20T22:41:36;42.30;;;39.80;;
16626;SDS011;8427;52.204;7.202;2023-08-20T22:44:04;43.30;;;40.70;;
16626;SDS011;8427;52.204;7.202;2023-08-20T22:46:32;43.00;;;40.50;;
16626;SDS011;8427;52.204;7.202;2023-08-20T22:49:00;43.80;;;41.10;;
16626;SDS011;8427;52.204;7.202;2023-08-20T22:51:28;42.20;;;39.80;;
16626;SDS011;8427;52.204;7.202;2023-08-20T22:53:56;42.60;;;40.10;;
16626;SDS011;8427;52.204;7.202;2023-08-20T22:56:25;41.03;;;38.73;;
16626;SDS011;8427;52.204;7.202;2023-08-20T22:58:53;45.87;;;42.83;;
16626;SDS011;8427;52.204;7.202;2023-08-20T23:01:21;42.40;;;40.00;;
16626;SDS011;8427;52.204;7.202;2023-08-20T23:03:49;43.60;;;40.90;;
16626;SDS011;8427;52.204;7.202;2023-08-20T23:06:17;42.30;;;39.93;;
16626;SDS011;8427;52.204;7.202;2023-08-20T23:08:45;41.87;;;39.57;;
16626;SDS011;8427;52.204;7.202;2023-08-20T23:11:12;42.67;;;40.20;;
16626;SDS011;8427;52.204;7.202;2023-08-20T23:13:42;42.87;;;40.37;;
16626;SDS011;8427;52.204;7.202;2023-08-20T23:16:10;41.70;;;39.40;;
16626;SDS011;8427;52.204;7.202;2023-08-20T23:18:37;41.87;;;39.57;;
16626;SDS011;8427;52.204;7.202;2023-08-20T23:21:06;40.50;;;38.40;;
16626;SDS011;8427;52.204;7.202;2023-08-20T23:23:34;40.63;;;38.53;;
16626;SDS011;8427;52.204;7.202;2023-08-20T23:26:02;40.60;;;38.50;;
16626;SDS011;8427;52.204;7.202;2023-08-20T23:28:30;40.70;;;38.60;;
16626;SDS011;8427;52.204;7.202;2023-08-20T23:30:59;41.67;;;39.47;;
16626;SDS011;8427;52.204;7.202;2023-08-20T23:33:29;42.10;;;39.90;;
16626;SDS011;8427;52.204;7.202;2023-08-20T23:35:57;42.60;;;40.30;;
16626;SDS011;8427;52.204;7.202;2023-08-20T23:38:25;40.00;;;37.97;;
16626;SDS011;8427;52.204;7.202;2023-08-20T23:40:53;39.87;;;37.87;;
16626;SDS011;8427;52.204;7.202;2023-08-20T23:43:22;41.60;;;39.30;;
16626;SDS011;8427;52.204;7.202;2023-08-20T23:45:52;40.83;;;38.70;;
16626;SDS011;8427;52.204;7.202;2023-08-20T23:48:21;41.23;;;39.13;;
16626;SDS011;8427;52.204;7.202;2023-08-20T23:50:49;39.90;;;37.90;;
16626;SDS011;8427;52.204;7.202;2023-08-20T23:53:17;42.37;;;40.07;;
16626;SDS011;8427;52.204;7.202;2023-08-20T23:55:45;40.70;;;38.70;;
16626;SDS011;8427;52.204;7.202;2023-08-20T23:58:13;40.80;;;38.80;;
